2011-12-10から1日間の記事一覧

iPhoneのStar Walk

pc

2010年10月に買ったアプリのStar Walk。電子コンパスに連動して動くときと動かないときがあるなーと思っていたが、「振る」と動くようになるのを14ヶ月経った今日知った。ヘルプにも書いてないぞこのやろう_| ̄|○

Aviation Digital Data Service (ADDS)

Aviation Digital Data Service (ADDS)Output produced by METARs form (0431 UTC 10 December 2011) found at http://aviationweather.gov/adds/metars/index.php RJFR 100400Z 28014KT 9999 FEW025 BKN045 06/M02 Q1023 RJFR 100300Z 29017KT 9999 FEW025 …